Huvudsida
METAR-TAF:

METAR-TAF

Flygplatser :

Providenciales, Turks- och Caicosöarna

latitud: 21-46-25N, longitud: 072-15-57W, höjd: 5 m

Aktuellt väderrapport

Denna rapport gjordes för 6 timmar och 7 minuter sedan, klockan 00:00 UTC
Vind 6 kt från nordost
Temperatur 28°C
Fuktighet 74%
Tryck 1013 hPa
Sikt 10 km eller mer
Spridda moln på en höjd av 1200 ft

METAR: MBPV 220000Z 05006KT 9999 SCT012 28/23 Q1013

Tid: 02:07 (06:07 UTC)

Väderprognos

Denna rapport gjordes för 7 timmar och 27 minuter sedan, klockan 22:40 UTC
Prognos gäller från 22 kl. 00 UTC till 22 kl. 24 UTC
Vind 6 kt från ost
Sikt 10 km eller mer
Spridda moln på en höjd av 1800 ft
Spridda moln på en höjd av 3000 ft

TAF: MBPV 212240Z 2200/2224 10006KT 9999 SCT018 SCT030

Aktuella väderrapporter och prognoser från 4000 flygplatser (METAR- och TAF-rapporter).

De tillgängliga stationerna syns som gula och röda prickar på kartan.

För musen över prickarna för att se namnen på stationerna.

Klicka sedan för att få väderrapporter och prognoser.

För att ändra kartan: Klicka på de gröna knapparna med ett svart kors på för att zooma in; den gröna knappen med ett streck på för att zooma ut; eller på de gröna pilarna för angränsande kartor.


METAR-TAF: